Time;durP1;ratioP1;P1;durP2;ratioP2;P2;SDS_P1;SDS_P2;PMS_P1;PMS_P2;Temp;Humidity;BMP_temperature;BMP_pressure;BME280_temperature;BME280_humidity;BME280_pressure;Samples;Min_cycle;Max_cycle;Signal;HPM_P1;HPM_P2
2022/11/14 00:01:44;;;;;;;16.17;10.43;;;;;;;6.36;100.00;96210.88;5061837;28;20212;-77
2022/11/14 00:04:29;;;;;;;16.40;10.07;;;;;;;6.44;100.00;96205.31;5061179;28;20215;-77
2022/11/14 00:07:15;;;;;;;17.43;10.80;;;;;;;6.60;100.00;96206.72;5063981;28;20300;-77
2022/11/14 00:10:00;;;;;;;21.83;11.20;;;;;;;6.57;100.00;96209.81;5057756;28;20486;-77
2022/11/14 00:12:46;;;;;;;15.53;10.37;;;;;;;6.53;100.00;96200.56;5054051;28;20209;-77
2022/11/14 00:15:32;;;;;;;19.17;11.03;;;;;;;6.54;100.00;96199.50;5062986;28;20236;-77
2022/11/14 00:18:18;;;;;;;14.37;9.97;;;;;;;6.53;100.00;96213.97;5062801;28;20209;-77
2022/11/14 00:21:04;;;;;;;19.73;11.17;;;;;;;6.55;100.00;96211.88;5062260;28;20201;-76
2022/11/14 00:23:49;;;;;;;17.60;10.97;;;;;;;6.71;100.00;96198.03;5063126;28;20237;-77
2022/11/14 00:26:35;;;;;;;17.20;11.23;;;;;;;6.77;100.00;96199.88;5065506;28;20239;-76
2022/11/14 00:29:21;;;;;;;16.77;11.33;;;;;;;6.81;100.00;96208.31;5057545;28;20220;-77
2022/11/14 00:32:08;;;;;;;18.90;11.60;;;;;;;6.84;100.00;96214.09;5058875;28;20267;-77
2022/11/14 00:34:53;;;;;;;17.73;10.73;;;;;;;6.87;100.00;96212.88;5056574;28;20287;-77
2022/11/14 00:37:39;;;;;;;17.47;10.87;;;;;;;6.88;100.00;96222.56;5062233;28;20215;-78
2022/11/14 00:40:25;;;;;;;20.57;12.13;;;;;;;6.83;100.00;96215.13;5059893;28;20213;-77
2022/11/14 00:43:11;;;;;;;16.73;10.87;;;;;;;6.81;100.00;96206.47;5059963;28;20311;-76
2022/11/14 00:45:57;;;;;;;17.40;11.63;;;;;;;6.80;100.00;96206.69;5062704;28;20209;-77
2022/11/14 00:48:44;;;;;;;19.80;11.43;;;;;;;6.83;100.00;96223.19;5059750;28;20313;-77
2022/11/14 00:51:30;;;;;;;15.60;11.00;;;;;;;6.81;100.00;96214.50;5060543;28;20328;-77
2022/11/14 00:54:15;;;;;;;17.00;10.30;;;;;;;6.82;100.00;96207.28;5064439;28;20217;-77
2022/11/14 00:57:01;;;;;;;16.27;10.30;;;;;;;6.84;100.00;96208.72;5065407;28;20220;-77
2022/11/14 00:59:48;;;;;;;16.60;10.43;;;;;;;6.89;100.00;96220.72;5065138;28;20235;-77
2022/11/14 01:02:34;;;;;;;19.90;11.63;;;;;;;6.88;100.00;96208.31;5061014;28;20271;-77
2022/11/14 01:05:20;;;;;;;16.87;10.67;;;;;;;6.92;100.00;96198.81;5060051;28;20219;-77
2022/11/14 01:08:06;;;;;;;15.23;9.80;;;;;;;6.89;100.00;96204.59;5063425;28;20212;-77
2022/11/14 01:10:52;;;;;;;16.40;10.87;;;;;;;6.90;100.00;96206.22;5060947;28;20355;-76
2022/11/14 01:13:38;;;;;;;17.00;10.67;;;;;;;6.94;100.00;96207.47;5065404;28;20259;-77
2022/11/14 01:16:24;;;;;;;16.37;11.20;;;;;;;6.92;100.00;96212.22;5056739;28;20217;-77
2022/11/14 01:19:09;;;;;;;14.23;10.37;;;;;;;6.93;100.00;96206.66;5066171;28;20306;-76
2022/11/14 01:21:56;;;;;;;16.30;10.37;;;;;;;6.98;100.00;96208.69;5057037;28;20216;-77
2022/11/14 01:24:42;;;;;;;17.53;10.77;;;;;;;7.00;100.00;96198.56;5057834;28;20283;-77
2022/11/14 01:27:31;;;;;;;15.30;10.37;;;;;;;7.00;100.00;96193.19;5062675;28;20363;-77
2022/11/14 01:30:17;;;;;;;15.87;10.53;;;;;;;6.99;100.00;96188.88;5059923;28;20251;-77
2022/11/14 01:33:04;;;;;;;15.13;9.87;;;;;;;7.04;100.00;96205.19;5055129;28;20248;-77
2022/11/14 01:35:49;;;;;;;16.33;10.73;;;;;;;7.05;100.00;96210.34;5064272;28;20236;-77
2022/11/14 01:38:37;;;;;;;15.53;9.93;;;;;;;7.07;100.00;96210.09;5061685;28;20208;-77
2022/11/14 01:41:23;;;;;;;14.97;10.33;;;;;;;7.08;100.00;96209.06;5062777;28;20220;-77
2022/11/14 01:44:13;;;;;;;15.53;10.40;;;;;;;7.06;100.00;96205.78;5056965;28;20232;-77
2022/11/14 01:46:59;;;;;;;16.00;10.00;;;;;;;7.07;100.00;96207.41;5053400;28;20205;-77
2022/11/14 01:49:48;;;;;;;14.23;10.30;;;;;;;7.08;100.00;96219.81;5052544;28;20359;-76
2022/11/14 01:52:36;;;;;;;15.37;9.73;;;;;;;7.08;100.00;96209.06;5056672;28;20314;-77
2022/11/14 01:55:26;;;;;;;15.07;10.20;;;;;;;7.07;100.00;96216.31;5061645;28;20232;-76
2022/11/14 01:58:12;;;;;;;13.73;9.93;;;;;;;7.11;100.00;96197.91;5061936;28;20298;-77
2022/11/14 02:00:58;;;;;;;14.33;10.07;;;;;;;7.10;100.00;96193.59;5059082;28;20216;-77
2022/11/14 02:03:48;;;;;;;14.13;9.70;;;;;;;7.09;100.00;96183.88;5056486;28;20348;-77
2022/11/14 02:06:35;;;;;;;14.97;10.23;;;;;;;7.10;100.00;96175.63;5055850;28;20212;-77
2022/11/14 02:09:21;;;;;;;14.47;9.83;;;;;;;7.08;100.00;96177.69;5062067;28;20220;-77
2022/11/14 02:12:11;;;;;;;13.43;9.30;;;;;;;7.15;100.00;96180.34;5063102;28;20216;-77
2022/11/14 02:14:59;;;;;;;17.83;10.17;;;;;;;7.09;100.00;96173.13;5059655;28;20230;-77
2022/11/14 02:17:44;;;;;;;14.20;9.70;;;;;;;7.09;100.00;96176.66;5058800;28;20291;-77
2022/11/14 02:20:35;;;;;;;15.20;9.73;;;;;;;7.06;100.00;96169.00;5060692;28;20212;-77
2022/11/14 02:23:28;;;;;;;15.93;10.43;;;;;;;7.06;100.00;96169.00;5062618;28;20213;-77
2022/11/14 02:26:17;;;;;;;16.47;9.87;;;;;;;7.13;100.00;96166.31;5062928;28;20217;-77
2022/11/14 02:29:03;;;;;;;16.23;10.13;;;;;;;7.14;100.00;96159.91;5065982;28;20248;-77
2022/11/14 02:31:49;;;;;;;15.23;9.67;;;;;;;7.14;100.00;96155.38;5066765;28;20278;-77
2022/11/14 02:34:35;;;;;;;15.17;9.83;;;;;;;7.18;100.00;96177.22;5061916;28;20220;-77
2022/11/14 02:37:22;;;;;;;13.37;9.17;;;;;;;7.24;100.00;96160.25;5064421;28;20227;-76
2022/11/14 02:40:09;;;;;;;13.20;9.30;;;;;;;7.23;100.00;96151.38;5059101;28;20278;-76
2022/11/14 02:42:55;;;;;;;1.70;1.30;;;;;;;9.40;100.00;96166.66;5060891;28;20243;-77
2022/11/14 02:45:41;;;;;;;1.30;1.20;;;;;;;11.24;83.91;96160.09;5064960;28;20208;-77
2022/11/14 02:48:26;;;;;;;1.13;1.03;;;;;;;12.10;76.57;96151.78;5067713;28;20224;-77
2022/11/14 02:51:12;;;;;;;1.20;1.10;;;;;;;12.69;71.15;96162.19;5065569;28;20219;-77
2022/11/14 02:53:59;;;;;;;1.10;1.10;;;;;;;12.92;70.58;96170.16;5063539;28;20216;-77
2022/11/14 02:56:44;;;;;;;1.10;1.00;;;;;;;12.91;69.57;96171.22;5065993;28;20258;-77
2022/11/14 02:59:30;;;;;;;1.00;0.90;;;;;;;12.98;69.43;96171.03;5062168;28;20416;-77
2022/11/14 03:02:16;;;;;;;0.80;0.80;;;;;;;13.11;68.15;96182.31;5069310;28;20208;-77
2022/11/14 03:05:02;;;;;;;0.80;0.80;;;;;;;13.21;67.10;96178.97;5066296;28;20201;-77
2022/11/14 03:07:48;;;;;;;1.07;1.00;;;;;;;13.29;67.38;96169.56;5063250;28;20248;-77
2022/11/14 03:10:34;;;;;;;1.40;1.07;;;;;;;13.23;68.01;96174.94;5069130;28;20268;-77
2022/11/14 03:13:20;;;;;;;1.00;0.90;;;;;;;13.29;66.61;96175.00;5066233;28;20207;-77
2022/11/14 03:16:07;;;;;;;0.80;0.80;;;;;;;13.23;67.51;96174.94;5064720;28;20243;-77
2022/11/14 03:18:53;;;;;;;1.00;0.90;;;;;;;13.36;64.50;96170.19;5063617;28;20196;-76
2022/11/14 03:21:38;;;;;;;0.80;0.80;;;;;;;13.51;64.63;96167.69;5060444;28;20213;-77
2022/11/14 03:24:25;;;;;;;0.70;0.70;;;;;;;13.59;63.39;96167.25;5060316;28;20445;-77
2022/11/14 03:27:12;;;;;;;0.80;0.80;;;;;;;13.55;64.43;96169.63;5058178;28;20232;-77
2022/11/14 03:29:57;;;;;;;0.90;0.90;;;;;;;13.56;63.95;96165.84;5056761;28;20217;-76
2022/11/14 03:32:43;;;;;;;0.70;0.70;;;;;;;13.68;62.10;96162.19;5064009;28;20342;-77
2022/11/14 03:35:29;;;;;;;0.63;0.63;;;;;;;13.76;61.61;96151.72;5066746;28;20228;-77
2022/11/14 03:38:14;;;;;;;3.30;0.80;;;;;;;13.82;60.61;96166.16;5066139;28;20209;-76
2022/11/14 03:41:01;;;;;;;0.77;0.77;;;;;;;13.82;59.98;96158.81;5068989;28;20212;-77
2022/11/14 03:43:47;;;;;;;0.80;0.70;;;;;;;13.84;61.39;96153.16;5055028;28;20224;-77
2022/11/14 03:46:34;;;;;;;0.80;0.80;;;;;;;13.68;61.71;96163.00;5069343;28;20398;-77
2022/11/14 03:49:20;;;;;;;0.70;0.70;;;;;;;13.79;60.70;96144.94;5055718;28;20209;-77
2022/11/14 03:52:06;;;;;;;0.80;0.80;;;;;;;13.72;62.95;96155.16;5051782;28;20217;-76
2022/11/14 03:54:52;;;;;;;0.90;0.90;;;;;;;13.44;64.54;96150.81;5069147;28;20350;-76
2022/11/14 03:57:37;;;;;;;0.80;0.80;;;;;;;13.57;63.06;96158.53;5060393;28;20205;-77
2022/11/14 04:00:26;;;;;;;1.67;0.77;;;;;;;13.56;63.09;96165.03;5069387;28;20255;-77
2022/11/14 04:03:12;;;;;;;0.83;0.80;;;;;;;13.64;62.00;96167.28;5058462;28;20209;-76
2022/11/14 04:05:58;;;;;;;1.10;0.97;;;;;;;13.61;61.60;96163.19;5058727;28;20283;-76
2022/11/14 04:08:43;;;;;;;0.87;0.87;;;;;;;13.53;64.95;96155.50;5059899;28;20231;-77
2022/11/14 04:11:29;;;;;;;0.87;0.87;;;;;;;13.27;68.79;96150.03;5064690;28;20356;-77
2022/11/14 04:14:14;;;;;;;0.80;0.80;;;;;;;13.11;67.48;96154.38;5059116;28;20221;-76
2022/11/14 04:17:01;;;;;;;0.90;0.90;;;;;;;13.18;66.00;96149.66;5065749;28;20213;-76
2022/11/14 04:19:46;;;;;;;0.80;0.80;;;;;;;13.30;64.15;96146.81;5066216;28;20209;-77
2022/11/14 04:22:32;;;;;;;1.07;0.80;;;;;;;13.52;61.61;96143.03;5059098;28;20240;-77
2022/11/14 04:25:18;;;;;;;0.90;0.87;;;;;;;13.59;61.87;96132.81;5053315;28;20240;-77
2022/11/14 04:28:04;;;;;;;0.83;0.80;;;;;;;13.49;63.71;96132.69;5058212;28;20240;-77
2022/11/14 04:30:49;;;;;;;1.10;0.97;;;;;;;13.48;61.85;96128.31;5059887;28;20230;-77
2022/11/14 04:33:36;;;;;;;1.07;0.83;;;;;;;13.57;61.24;96128.69;5060783;28;20204;-77
2022/11/14 04:36:22;;;;;;;0.70;0.70;;;;;;;13.53;63.01;96138.41;5064175;28;20366;-77
2022/11/14 04:39:08;;;;;;;0.90;0.90;;;;;;;13.45;63.55;96120.69;5059539;28;20208;-77
2022/11/14 04:41:54;;;;;;;0.80;0.80;;;;;;;13.43;62.68;96128.28;5057274;28;20235;-77
2022/11/14 04:44:40;;;;;;;1.00;1.00;;;;;;;13.47;63.09;96126.69;5059448;28;20290;-76
2022/11/14 04:47:25;;;;;;;1.77;0.80;;;;;;;13.44;62.83;96129.88;5057326;28;20266;-77
2022/11/14 04:50:12;;;;;;;0.90;0.90;;;;;;;13.41;62.08;96119.56;5059480;28;20220;-78
2022/11/14 04:52:58;;;;;;;0.80;0.80;;;;;;;13.55;60.95;96111.84;5064072;28;20216;-78
2022/11/14 04:55:44;;;;;;;0.80;0.80;;;;;;;13.51;61.27;96113.44;5060055;28;20228;-77
2022/11/14 04:58:30;;;;;;;0.70;0.70;;;;;;;13.49;60.95;96121.84;5060371;28;20204;-77
2022/11/14 05:01:16;;;;;;;0.80;0.80;;;;;;;13.54;60.34;96118.34;5053708;28;20213;-77
2022/11/14 05:04:01;;;;;;;0.83;0.83;;;;;;;13.57;60.49;96128.69;5070333;28;20204;-77
2022/11/14 05:06:48;;;;;;;1.33;1.13;;;;;;;13.53;60.80;96128.38;5061111;28;20207;-77
2022/11/14 05:09:35;;;;;;;0.70;0.70;;;;;;;13.50;60.17;96122.66;5062426;28;20216;-78
2022/11/14 05:12:20;;;;;;;1.00;0.90;;;;;;;13.55;59.84;96119.97;5063181;28;20217;-79
2022/11/14 05:15:07;;;;;;;0.70;0.70;;;;;;;13.55;59.74;96118.09;5063305;28;20312;-79
2022/11/14 05:17:53;;;;;;;0.73;0.70;;;;;;;13.63;58.91;96123.06;5055676;28;20236;-76
2022/11/14 05:20:38;;;;;;;0.70;0.70;;;;;;;13.60;59.49;96129.03;5053793;28;20217;-76
2022/11/14 05:23:26;;;;;;;0.70;0.70;;;;;;;13.54;59.72;96134.63;5056847;28;20208;-77
2022/11/14 05:26:14;;;;;;;0.80;0.80;;;;;;;13.55;59.86;96147.94;5062531;28;20301;-77
2022/11/14 05:28:59;;;;;;;0.70;0.70;;;;;;;13.52;59.49;96148.47;5060275;28;20262;-76
2022/11/14 05:31:45;;;;;;;0.67;0.67;;;;;;;13.54;59.86;96161.75;5062288;28;20216;-77
2022/11/14 05:34:30;;;;;;;0.90;0.70;;;;;;;13.40;62.14;96161.31;5059839;28;20217;-77
2022/11/14 05:37:15;;;;;;;0.70;0.70;;;;;;;13.26;65.24;96162.78;5065220;28;20212;-76
2022/11/14 05:40:03;;;;;;;2.10;0.77;;;;;;;13.12;68.29;96169.59;5066932;28;20224;-77
2022/11/14 05:42:49;;;;;;;1.53;0.80;;;;;;;12.97;70.54;96177.50;5055765;28;20272;-76
2022/11/14 05:45:34;;;;;;;0.60;0.60;;;;;;;12.56;76.54;96185.03;5057180;28;20205;-76
2022/11/14 05:48:20;;;;;;;0.60;0.60;;;;;;;12.56;75.26;96184.22;5060982;28;20224;-76
2022/11/14 05:51:07;;;;;;;0.90;0.80;;;;;;;12.95;67.10;96185.88;5058983;28;20240;-76
2022/11/14 05:53:53;;;;;;;0.63;0.63;;;;;;;13.06;66.96;96181.44;5059132;28;20208;-78
2022/11/14 05:56:40;;;;;;;0.70;0.70;;;;;;;13.02;69.86;96180.28;5064920;28;20224;-77
2022/11/14 05:59:26;;;;;;;1.00;0.90;;;;;;;13.01;71.01;96189.50;5067173;28;20220;-76
2022/11/14 06:02:11;;;;;;;0.90;0.90;;;;;;;12.90;71.85;96199.38;5066691;28;20285;-77
2022/11/14 06:04:57;;;;;;;0.80;0.80;;;;;;;12.88;70.90;96206.91;5060673;28;20213;-77
2022/11/14 06:07:42;;;;;;;0.80;0.80;;;;;;;12.82;71.33;96208.75;5056783;28;20212;-77
2022/11/14 06:10:27;;;;;;;2.43;1.27;;;;;;;12.81;70.78;96209.00;5068058;28;20278;-77
2022/11/14 06:13:15;;;;;;;0.63;0.63;;;;;;;12.78;73.17;96212.19;5056291;28;20204;-78
2022/11/14 06:16:01;;;;;;;0.80;0.80;;;;;;;12.71;72.08;96212.34;5070179;28;20298;-77
2022/11/14 06:18:47;;;;;;;1.00;0.77;;;;;;;12.69;72.47;96210.94;5064553;28;20236;-77
2022/11/14 06:21:33;;;;;;;0.60;0.60;;;;;;;12.69;72.14;96213.66;5061781;28;20213;-77
2022/11/14 06:24:19;;;;;;;0.87;0.87;;;;;;;12.81;73.02;96227.94;5064109;28;20291;-78
2022/11/14 06:27:04;;;;;;;0.70;0.70;;;;;;;12.65;74.16;96229.59;5061740;28;20204;-77
2022/11/14 06:29:52;;;;;;;0.70;0.70;;;;;;;12.59;77.07;96240.59;5062791;28;20209;-77
2022/11/14 06:32:37;;;;;;;0.63;0.63;;;;;;;12.46;79.16;96247.13;5060703;28;20321;-78
2022/11/14 06:35:23;;;;;;;0.70;0.70;;;;;;;12.36;80.67;96252.38;5066040;28;20248;-76
2022/11/14 06:38:08;;;;;;;0.67;0.67;;;;;;;12.21;83.47;96249.41;5066218;28;20211;-79
2022/11/14 06:41:01;;;;;;;0.53;0.53;;;;;;;12.07;83.70;96249.72;5069769;28;20208;-79
2022/11/14 06:43:48;;;;;;;0.63;0.63;;;;;;;12.03;82.31;96255.81;5057712;28;20216;-78
2022/11/14 06:46:35;;;;;;;0.70;0.70;;;;;;;12.01;83.93;96249.81;5069709;28;20212;-78
2022/11/14 06:49:21;;;;;;;0.73;0.70;;;;;;;11.94;82.73;96266.22;5057347;28;20244;-78
2022/11/14 06:52:06;;;;;;;0.50;0.50;;;;;;;11.90;84.16;96265.06;5067757;28;20204;-78
2022/11/14 06:54:52;;;;;;;0.60;0.60;;;;;;;11.93;84.79;96274.56;5067742;28;20212;-78
2022/11/14 06:57:38;;;;;;;0.50;0.50;;;;;;;11.97;83.76;96281.97;5059387;28;20209;-79
2022/11/14 07:00:24;;;;;;;0.60;0.60;;;;;;;11.98;82.68;96274.69;5063729;28;20303;-78
2022/11/14 07:03:11;;;;;;;0.60;0.60;;;;;;;12.01;80.75;96272.31;5064741;28;20215;-78
2022/11/14 07:05:58;;;;;;;0.53;0.53;;;;;;;12.02;81.43;96284.78;5059273;28;20205;-79
2022/11/14 07:08:43;;;;;;;0.50;0.50;;;;;;;12.11;78.41;96274.38;5060965;28;20296;-76
2022/11/14 07:11:30;;;;;;;0.63;0.63;;;;;;;12.25;77.39;96283.84;5056597;28;20330;-76
2022/11/14 07:14:16;;;;;;;0.80;0.80;;;;;;;12.34;76.05;96293.22;5063094;28;20205;-77
2022/11/14 07:17:02;;;;;;;0.70;0.70;;;;;;;12.47;72.60;96298.34;5060030;28;20332;-77
2022/11/14 07:19:49;;;;;;;0.70;0.70;;;;;;;12.60;72.85;96302.63;5058159;28;20294;-76
2022/11/14 07:22:36;;;;;;;0.87;0.80;;;;;;;12.54;76.04;96309.03;5061493;28;20311;-77
2022/11/14 07:25:21;;;;;;;0.80;0.70;;;;;;;12.38;75.33;96307.13;5058463;28;20322;-77
2022/11/14 07:28:07;;;;;;;0.70;0.70;;;;;;;12.41;75.26;96306.63;5056698;28;20347;-76
2022/11/14 07:30:52;;;;;;;0.60;0.60;;;;;;;12.48;73.88;96310.00;5062158;28;20213;-76
2022/11/14 07:33:39;;;;;;;0.90;0.80;;;;;;;12.42;76.33;96310.97;5059704;28;20213;-77
2022/11/14 07:36:25;;;;;;;0.70;0.70;;;;;;;12.37;74.37;96295.47;5065330;28;20228;-76
2022/11/14 07:39:11;;;;;;;0.87;0.73;;;;;;;12.29;77.38;96297.72;5059679;28;20214;-77
2022/11/14 07:41:57;;;;;;;0.97;0.80;;;;;;;12.16;78.61;96292.63;5061961;28;20224;-75
2022/11/14 07:44:43;;;;;;;6.93;1.00;;;;;;;12.06;79.31;96291.34;5068140;28;20207;-75
2022/11/14 07:47:28;;;;;;;0.80;0.80;;;;;;;12.22;74.16;96295.19;5060658;28;20217;-78
2022/11/14 07:50:14;;;;;;;0.60;0.60;;;;;;;12.53;71.44;96304.69;5061898;28;20221;-76
2022/11/14 07:53:01;;;;;;;0.50;0.50;;;;;;;12.60;71.33;96294.50;5059823;28;20209;-76
2022/11/14 07:55:47;;;;;;;0.50;0.50;;;;;;;12.64;69.76;96303.81;5064197;28;20246;-77
2022/11/14 07:58:35;;;;;;;0.53;0.53;;;;;;;12.86;66.81;96307.44;5059738;28;20212;-77
2022/11/14 08:01:21;;;;;;;0.60;0.60;;;;;;;12.94;66.08;96302.66;5063403;28;20355;-76
2022/11/14 08:04:06;;;;;;;0.50;0.50;;;;;;;13.00;66.35;96296.28;5066271;28;20197;-76
2022/11/14 08:06:52;;;;;;;0.60;0.60;;;;;;;12.84;70.76;96298.72;5069739;28;20205;-76
2022/11/14 08:09:39;;;;;;;0.90;0.90;;;;;;;12.71;71.18;96298.22;5062086;28;20339;-76
2022/11/14 08:12:25;;;;;;;0.90;0.90;;;;;;;12.67;71.30;96297.91;5059433;28;20221;-76
2022/11/14 08:15:13;;;;;;;0.60;0.60;;;;;;;12.78;68.03;96305.13;5060738;28;20238;-76
2022/11/14 08:18:01;;;;;;;0.60;0.60;;;;;;;12.92;66.86;96305.66;5060015;28;20282;-76
2022/11/14 08:20:47;;;;;;;0.60;0.60;;;;;;;12.93;66.95;96290.22;5060787;28;20221;-76
2022/11/14 08:23:33;;;;;;;0.60;0.60;;;;;;;12.92;66.16;96289.38;5054754;28;20232;-76
2022/11/14 08:26:20;;;;;;;0.50;0.50;;;;;;;12.99;66.05;96306.28;5064499;28;20298;-77
2022/11/14 08:29:08;;;;;;;0.60;0.60;;;;;;;13.02;66.17;96304.97;5068187;28;20213;-77
2022/11/14 08:31:54;;;;;;;0.50;0.50;;;;;;;13.01;65.53;96281.66;5059430;28;20216;-79
2022/11/14 08:34:40;;;;;;;0.50;0.50;;;;;;;13.07;65.19;96299.63;5054030;28;20241;-78
2022/11/14 08:37:25;;;;;;;0.50;0.50;;;;;;;13.09;64.15;96297.50;5056535;28;20233;-76
2022/11/14 08:40:12;;;;;;;0.40;0.40;;;;;;;13.19;61.98;96297.69;5054408;28;20316;-78
2022/11/14 08:43:03;;;;;;;0.50;0.50;;;;;;;13.25;61.88;96294.81;5063525;28;20204;-76
2022/11/14 08:45:48;;;;;;;0.50;0.50;;;;;;;13.27;61.98;96292.66;5059859;28;20212;-76
2022/11/14 08:48:34;;;;;;;0.43;0.43;;;;;;;13.33;61.51;96282.72;5064161;28;20208;-77
2022/11/14 08:51:19;;;;;;;0.50;0.50;;;;;;;13.39;60.45;96280.91;5066605;28;20224;-76
2022/11/14 08:54:05;;;;;;;0.40;0.40;;;;;;;13.47;60.09;96286.72;5055119;28;20275;-76
2022/11/14 08:56:51;;;;;;;0.50;0.50;;;;;;;13.60;58.60;96289.09;5065643;28;20224;-77
2022/11/14 08:59:38;;;;;;;0.40;0.40;;;;;;;13.74;57.35;96292.25;5059774;28;20265;-76
2022/11/14 09:02:24;;;;;;;0.50;0.50;;;;;;;13.69;57.79;96288.66;5061201;28;20212;-77
2022/11/14 09:05:09;;;;;;;0.60;0.60;;;;;;;13.82;56.30;96285.56;5058418;28;20596;-77
2022/11/14 09:07:55;;;;;;;0.50;0.50;;;;;;;13.85;56.48;96310.31;5058522;28;20220;-76
2022/11/14 09:10:41;;;;;;;1.10;0.40;;;;;;;13.83;55.88;96300.75;5058579;28;20275;-79
2022/11/14 09:13:27;;;;;;;0.47;0.47;;;;;;;13.98;53.83;96300.97;5053763;28;20294;-76
2022/11/14 09:16:14;;;;;;;0.50;0.50;;;;;;;13.93;55.47;96299.00;5066873;28;20239;-76
2022/11/14 09:19:00;;;;;;;0.40;0.40;;;;;;;14.00;54.40;96277.09;5062587;28;20216;-76
2022/11/14 09:21:46;;;;;;;0.40;0.40;;;;;;;13.98;54.64;96296.34;5060602;28;20221;-76
2022/11/14 09:24:33;;;;;;;0.43;0.43;;;;;;;14.01;53.85;96305.88;5063632;28;20252;-75
2022/11/14 09:27:19;;;;;;;0.40;0.40;;;;;;;14.03;54.50;96322.75;5059006;28;20208;-76
2022/11/14 09:30:06;;;;;;;0.50;0.50;;;;;;;14.04;53.11;96327.09;5063833;28;20287;-75
2022/11/14 09:32:53;;;;;;;0.47;0.47;;;;;;;14.05;53.06;96320.59;5058652;28;20216;-77
2022/11/14 09:35:39;;;;;;;0.57;0.57;;;;;;;14.01;54.05;96341.19;5063464;28;20208;-77
2022/11/14 09:38:24;;;;;;;0.40;0.40;;;;;;;14.03;53.26;96334.41;5055876;28;20228;-75
2022/11/14 09:41:26;;;;;;;0.50;0.50;;;;;;;14.05;53.14;96326.00;5061428;28;20335;-77
2022/11/14 09:44:34;;;;;;;0.50;0.50;;;;;;;14.01;53.12;96335.75;5064426;28;20249;-83
2022/11/14 09:47:24;;;;;;;0.50;0.50;;;;;;;13.99;54.00;96335.19;5055427;28;20228;-83
2022/11/14 09:50:17;;;;;;;1.60;0.73;;;;;;;13.88;54.91;96333.38;5058247;28;20225;-82
2022/11/14 09:53:11;;;;;;;0.40;0.40;;;;;;;13.93;53.71;96333.47;5058422;28;20221;-82
2022/11/14 09:55:58;;;;;;;0.50;0.50;;;;;;;14.09;51.59;96327.16;5058761;28;20220;-81
2022/11/14 09:58:43;;;;;;;0.50;0.50;;;;;;;14.17;51.14;96337.59;5059728;28;20213;-82
2022/11/14 10:01:39;;;;;;;0.47;0.47;;;;;;;14.15;52.64;96322.59;5055114;28;20236;-81
2022/11/14 10:04:45;;;;;;;0.50;0.50;;;;;;;14.20;52.83;96322.69;5062217;28;20232;-81
2022/11/14 10:07:45;;;;;;;0.47;0.47;;;;;;;14.23;51.61;96314.84;5059663;28;20208;-82
2022/11/14 10:10:44;;;;;;;0.50;0.50;;;;;;;14.38;49.60;96300.59;5055458;28;20372;-82
2022/11/14 10:14:01;;;;;;;0.47;0.47;;;;;;;14.47;50.56;96303.72;5059206;28;20263;-82
2022/11/14 10:16:54;;;;;;;0.40;0.40;;;;;;;14.49;50.36;96294.22;5029108;28;20248;-81
2022/11/14 10:19:47;;;;;;;0.40;0.40;;;;;;;14.53;49.59;96289.13;5056678;28;20352;-82
2022/11/14 10:22:50;;;;;;;4.30;2.10;;;;;;;14.62;49.33;96277.53;5061689;28;20244;-81
2022/11/14 10:25:49;;;;;;;0.43;0.43;;;;;;;14.67;49.20;96290.34;5058286;28;20355;-81
2022/11/14 10:28:58;;;;;;;0.50;0.50;;;;;;;14.77;49.81;96263.25;5057439;28;20220;-83
2022/11/14 10:31:54;;;;;;;0.50;0.50;;;;;;;14.82;47.58;96276.88;5062605;28;20343;-83
2022/11/14 10:34:45;;;;;;;0.50;0.50;;;;;;;14.88;47.53;96275.03;5068241;28;20205;-81
2022/11/14 10:37:36;;;;;;;0.60;0.60;;;;;;;14.82;49.85;96276.88;5060817;28;20248;-79
2022/11/14 10:40:28;;;;;;;0.47;0.47;;;;;;;14.76;50.47;96275.22;5059003;28;20295;-83
2022/11/14 10:43:26;;;;;;;0.50;0.50;;;;;;;14.82;47.92;96273.34;5070828;28;20225;-81
2022/11/14 10:46:17;;;;;;;0.40;0.40;;;;;;;14.76;48.44;96257.00;5067656;28;20255;-82
2022/11/14 10:49:02;;;;;;;0.50;0.50;;;;;;;14.85;47.62;96268.22;5061577;28;20256;-83
2022/11/14 10:51:52;;;;;;;0.30;0.30;;;;;;;14.96;46.35;96260.97;5064666;28;20204;-83
2022/11/14 10:54:44;;;;;;;0.40;0.40;;;;;;;14.99;45.98;96250.38;5061764;28;20208;-83
2022/11/14 10:57:31;;;;;;;0.40;0.40;;;;;;;14.98;46.52;96259.63;5062197;28;20240;-84
2022/11/14 11:00:21;;;;;;;0.53;0.53;;;;;;;15.05;45.63;96249.34;5055353;28;20222;-81
2022/11/14 11:03:07;;;;;;;0.40;0.40;;;;;;;15.09;45.28;96244.19;5060388;28;20213;-81
2022/11/14 11:05:56;;;;;;;0.50;0.50;;;;;;;15.07;47.08;96254.50;5059964;28;20472;-83
2022/11/14 11:11:57;;;;;;;0.40;0.40;;;;;;;15.32;43.51;96256.59;5056836;28;20232;-83
2022/11/14 11:14:44;;;;;;;0.77;0.77;;;;;;;15.30;44.76;96258.78;5060571;28;20216;-83
2022/11/14 11:17:30;;;;;;;0.47;0.47;;;;;;;15.29;43.22;96263.41;5059205;28;20232;-83
2022/11/14 11:20:31;;;;;;;0.40;0.40;;;;;;;15.28;43.73;96269.91;5063336;28;20229;-83
2022/11/14 11:23:21;;;;;;;0.50;0.50;;;;;;;15.22;44.11;96251.09;5062828;28;20289;-80
2022/11/14 11:26:15;;;;;;;0.50;0.50;;;;;;;15.19;44.22;96271.47;5026726;28;20222;-82
2022/11/14 11:29:05;;;;;;;0.40;0.40;;;;;;;15.15;44.57;96276.59;5023560;28;20209;-83
2022/11/14 11:31:55;;;;;;;0.53;0.53;;;;;;;15.10;45.15;96283.91;5023334;28;20272;-79
2022/11/14 11:34:41;;;;;;;0.60;0.60;;;;;;;15.04;46.68;96274.91;5016556;28;20206;-83
2022/11/14 11:37:30;;;;;;;0.60;0.60;;;;;;;14.96;45.50;96294.44;5021325;28;20276;-83
2022/11/14 11:40:20;;;;;;;0.50;0.50;;;;;;;14.93;46.23;96299.53;5014194;28;20233;-83
2022/11/14 11:43:13;;;;;;;0.60;0.60;;;;;;;14.92;46.19;96293.28;5013390;28;20230;-83
2022/11/14 11:46:03;;;;;;;0.60;0.60;;;;;;;14.95;45.47;96292.78;5016596;28;20413;-82
2022/11/14 11:48:56;;;;;;;0.80;0.80;;;;;;;14.96;46.30;96294.44;5013025;28;20213;-83
2022/11/14 11:51:45;;;;;;;0.90;0.90;;;;;;;14.93;46.66;96281.34;5010589;28;20318;-81
2022/11/14 11:54:37;;;;;;;1.23;0.80;;;;;;;14.86;47.56;96283.44;5010382;28;21276;-80
2022/11/14 11:57:28;;;;;;;0.60;0.60;;;;;;;14.82;48.20;96282.31;5020870;28;20311;-82
2022/11/14 12:00:17;;;;;;;0.60;0.60;;;;;;;14.74;49.01;96280.91;5012398;28;20226;-83
2022/11/14 12:03:05;;;;;;;0.50;0.50;;;;;;;14.71;49.52;96286.03;5014506;28;20281;-82
2022/11/14 12:06:00;;;;;;;0.50;0.50;;;;;;;14.93;45.50;96289.50;5017245;28;20269;-83
2022/11/14 12:09:02;;;;;;;0.60;0.60;;;;;;;15.10;44.70;96268.41;5018777;28;20249;-82
2022/11/14 12:11:52;;;;;;;0.60;0.60;;;;;;;15.12;44.92;96282.59;5027694;28;20302;-83
2022/11/14 12:14:59;;;;;;;1.30;0.50;;;;;;;15.09;45.50;96293.97;5020748;28;20285;-84
2022/11/14 12:18:07;;;;;;;0.60;0.60;;;;;;;15.07;45.48;96290.69;5028521;28;20234;-84
2022/11/14 12:21:18;;;;;;;0.40;0.40;;;;;;;15.09;45.02;96293.16;5015769;28;20218;-83
2022/11/14 12:24:40;;;;;;;0.50;0.50;;;;;;;15.07;45.26;96296.13;5026386;28;20236;-84
2022/11/14 12:27:48;;;;;;;1.13;0.60;;;;;;;15.05;45.54;96298.31;5061581;28;20216;-82
2022/11/14 12:30:36;;;;;;;0.60;0.60;;;;;;;15.00;45.75;96300.97;5055484;28;20221;-84
2022/11/14 12:33:25;;;;;;;1.27;1.00;;;;;;;14.94;47.51;96304.72;5055407;28;20253;-82
2022/11/14 12:36:13;;;;;;;1.10;0.90;;;;;;;14.90;47.68;96300.88;5053515;28;20236;-83
2022/11/14 12:39:00;;;;;;;1.33;0.90;;;;;;;14.89;47.07;96310.09;5058466;28;20229;-84
2022/11/14 12:41:46;;;;;;;0.77;0.70;;;;;;;14.94;47.43;96302.00;5058125;28;20224;-83
2022/11/14 12:44:35;;;;;;;0.70;0.70;;;;;;;14.91;48.07;96309.84;5068886;28;20225;-83
2022/11/14 12:47:23;;;;;;;0.70;0.70;;;;;;;14.92;48.61;96287.84;5066057;28;20439;-82
2022/11/14 12:50:40;;;;;;;0.60;0.60;;;;;;;14.96;47.58;96296.31;5056886;28;20227;-82
2022/11/14 12:53:41;;;;;;;2.93;0.67;;;;;;;14.94;49.53;96291.13;5022369;28;20221;-82
2022/11/14 12:56:56;;;;;;;0.60;0.60;;;;;;;14.90;50.61;96290.00;5053054;28;20216;-80
2022/11/14 12:59:53;;;;;;;0.63;0.63;;;;;;;14.87;50.10;96289.72;5064825;28;20215;-83
2022/11/14 13:03:14;;;;;;;0.50;0.50;;;;;;;14.87;49.10;96278.84;5065573;28;20212;-82
2022/11/14 13:06:03;;;;;;;0.50;0.50;;;;;;;14.88;48.93;96281.31;5065251;28;20213;-82
2022/11/14 13:09:31;;;;;;;2.53;0.60;;;;;;;14.89;48.49;96282.91;5056250;28;20264;-82
2022/11/14 13:22:19;;;;;;;0.57;0.57;;;;;;;14.97;48.32;96287.88;5061238;28;20209;-83
2022/11/14 13:25:23;;;;;;;0.63;0.63;;;;;;;14.96;49.00;96256.34;5059674;28;20229;-83